createdAt,value
2022-08-29T00:03:01.229Z,99322.09
2022-08-29T00:06:04.851Z,99316.14
2022-08-29T00:09:06.788Z,99320.27
2022-08-29T00:12:08.923Z,99318.54
2022-08-29T00:15:11.968Z,99324.13
2022-08-29T00:18:19.421Z,99322.84
2022-08-29T00:21:21.396Z,99321.96
2022-08-29T00:24:23.178Z,99324.51
2022-08-29T00:27:25.451Z,99325.13
2022-08-29T00:30:27.310Z,99325.77
2022-08-29T00:33:29.202Z,99326.95
2022-08-29T00:36:31.052Z,99324.15
2022-08-29T00:39:33.150Z,99320.70
2022-08-29T00:42:36.717Z,99313.27
2022-08-29T00:45:47.005Z,99313.79
2022-08-29T00:48:54.655Z,99313.63
2022-08-29T00:51:58.700Z,99317.25
2022-08-29T00:55:04.032Z,99322.55
2022-08-29T00:58:18.688Z,99324.03
2022-08-29T01:01:21.443Z,99324.41
2022-08-29T01:04:24.529Z,99323.41
2022-08-29T01:07:27.068Z,99327.93
2022-08-29T01:10:47.378Z,99327.98
2022-08-29T01:13:49.625Z,99329.07
2022-08-29T01:16:52.675Z,99328.89
2022-08-29T01:20:06.275Z,99331.77
2022-08-29T01:23:15.643Z,99328.14
2022-08-29T01:26:17.439Z,99329.23
2022-08-29T01:29:19.178Z,99328.23
2022-08-29T01:32:22.581Z,99323.88
2022-08-29T01:35:25.463Z,99322.56
2022-08-29T01:38:29.974Z,99321.21
2022-08-29T01:41:32.961Z,99321.31
2022-08-29T01:44:34.636Z,99323.35
2022-08-29T01:47:37.939Z,99325.16
2022-08-29T01:50:40.005Z,99327.63
2022-08-29T01:53:42.442Z,99325.77
2022-08-29T01:56:47.485Z,99329.03
2022-08-29T01:59:49.650Z,99330.05
2022-08-29T02:02:52.046Z,99328.04
2022-08-29T02:05:54.016Z,99328.73
2022-08-29T02:08:56.065Z,99330.88
2022-08-29T02:11:58.435Z,99333.27
2022-08-29T02:15:00.530Z,99331.44
2022-08-29T02:18:02.377Z,99331.27
2022-08-29T02:21:04.707Z,99334.04
2022-08-29T02:24:24.044Z,99329.96
2022-08-29T02:27:27.122Z,99330.38
2022-08-29T02:30:28.846Z,99332.33
2022-08-29T02:33:31.524Z,99334.98
2022-08-29T02:36:33.943Z,99335.98
2022-08-29T02:39:36.186Z,99333.77
2022-08-29T02:42:38.488Z,99334.77
2022-08-29T02:45:41.875Z,99334.11
2022-08-29T02:48:49.306Z,99332.26
2022-08-29T02:52:04.693Z,99330.33
2022-08-29T02:55:07.534Z,99333.91
2022-08-29T02:58:09.493Z,99335.95
2022-08-29T03:01:11.474Z,99342.73
2022-08-29T03:04:13.530Z,99343.77
2022-08-29T03:07:15.409Z,99346.08
2022-08-29T03:10:17.331Z,99347.21
2022-08-29T03:13:19.290Z,99347.61
2022-08-29T03:16:21.128Z,99351.21
2022-08-29T03:19:23.198Z,99351.30
2022-08-29T03:22:26.237Z,99348.23
2022-08-29T03:25:28.212Z,99351.60
2022-08-29T03:28:30.439Z,99356.28
2022-08-29T03:31:32.721Z,99359.23
2022-08-29T03:34:34.873Z,99357.81
2022-08-29T03:37:37.134Z,99363.46
2022-08-29T03:40:41.229Z,99369.14
2022-08-29T03:43:43.066Z,99372.94
2022-08-29T03:46:45.480Z,99372.41
2022-08-29T03:49:49.337Z,99382.48
2022-08-29T03:52:51.547Z,99387.98
2022-08-29T03:55:53.323Z,99388.26
2022-08-29T03:58:55.896Z,99391.03
2022-08-29T04:01:58.703Z,99394.52
2022-08-29T04:05:10.034Z,99395.71
2022-08-29T04:08:12.941Z,99403.14
2022-08-29T04:11:16.147Z,99406.40
2022-08-29T04:14:20.186Z,99407.24
2022-08-29T04:17:21.854Z,99411.08
2022-08-29T04:20:25.890Z,99414.74
2022-08-29T04:23:28.071Z,99420.48
2022-08-29T04:26:37.808Z,99420.19
2022-08-29T04:29:39.973Z,99425.56
2022-08-29T04:32:42.016Z,99430.10
2022-08-29T04:35:44.057Z,99430.91
2022-08-29T04:38:45.840Z,99437.70
2022-08-29T04:41:47.685Z,99438.71
2022-08-29T04:44:49.440Z,99438.20
2022-08-29T04:47:51.616Z,99437.52
2022-08-29T04:50:58.273Z,99439.06
2022-08-29T04:54:00.228Z,99447.70
2022-08-29T04:57:03.472Z,99447.80
2022-08-29T05:00:14.042Z,99451.48
2022-08-29T05:03:16.529Z,99451.16
2022-08-29T05:06:22.628Z,99458.07
2022-08-29T05:09:24.715Z,99457.93
2022-08-29T05:12:28.313Z,99463.02
2022-08-29T05:15:30.469Z,99464.92
2022-08-29T05:18:32.253Z,99468.19
2022-08-29T05:21:36.514Z,99468.02
2022-08-29T05:24:38.543Z,99468.75
2022-08-29T05:27:41.064Z,99470.61
2022-08-29T05:30:42.769Z,99473.67
2022-08-29T05:33:44.624Z,99473.35
2022-08-29T05:36:46.377Z,99476.80
2022-08-29T05:39:49.990Z,99484.23
2022-08-29T05:42:51.696Z,99482.48
2022-08-29T05:46:03.892Z,99484.23
2022-08-29T05:49:05.920Z,99484.71
2022-08-29T05:52:08.437Z,99492.77
2022-08-29T05:55:11.062Z,99490.27
2022-08-29T05:58:12.887Z,99489.26
2022-08-29T06:01:25.232Z,99490.19
2022-08-29T06:04:28.062Z,99489.13
2022-08-29T06:07:31.062Z,99489.34
2022-08-29T06:10:33.182Z,99492.76
2022-08-29T06:13:35.061Z,99497.48
2022-08-29T06:16:37.061Z,99501.55
2022-08-29T06:19:39.852Z,99503.00
2022-08-29T06:22:41.788Z,99509.10
2022-08-29T06:25:43.437Z,99513.00
2022-08-29T06:28:46.377Z,99517.10
2022-08-29T06:31:48.169Z,99520.74
2022-08-29T06:34:50.005Z,99523.56
2022-08-29T06:37:51.845Z,99524.72
2022-08-29T06:40:53.526Z,99530.40
2022-08-29T06:43:57.022Z,99532.86
2022-08-29T06:46:59.387Z,99535.61
2022-08-29T06:50:01.188Z,99542.93
2022-08-29T06:53:26.371Z,99546.00
2022-08-29T06:56:24.754Z,99554.73
2022-08-29T06:59:28.605Z,99555.59
2022-08-29T07:02:30.422Z,99557.30
2022-08-29T07:05:32.265Z,99560.72
2022-08-29T07:08:34.943Z,99566.86
2022-08-29T07:11:41.088Z,99564.90
2022-08-29T07:14:43.254Z,99566.70
2022-08-29T07:17:45.531Z,99568.95
2022-08-29T07:20:47.450Z,99567.13
2022-08-29T07:23:50.199Z,99570.84
2022-08-29T07:26:52.245Z,99571.70
2022-08-29T07:29:54.385Z,99574.58
2022-08-29T07:32:56.227Z,99577.55
2022-08-29T07:36:01.286Z,99579.80
2022-08-29T07:39:06.807Z,99584.73
2022-08-29T07:42:08.618Z,99588.55
2022-08-29T07:45:12.197Z,99589.64
2022-08-29T07:48:14.414Z,99588.35
2022-08-29T07:51:18.402Z,99588.27
2022-08-29T07:54:21.171Z,99589.20
2022-08-29T07:57:23.692Z,99589.48
2022-08-29T08:00:25.453Z,99588.27
2022-08-29T08:03:27.294Z,99593.27
2022-08-29T08:06:29.049Z,99588.60
2022-08-29T08:09:32.822Z,99595.01
2022-08-29T08:12:34.669Z,99593.68
2022-08-29T08:15:38.682Z,99601.40
2022-08-29T08:18:42.162Z,99602.86
2022-08-29T08:21:49.632Z,99610.02
2022-08-29T08:24:53.062Z,99614.68
2022-08-29T08:27:54.934Z,99612.16
2022-08-29T08:31:01.188Z,99614.39
2022-08-29T08:34:06.466Z,99617.43
2022-08-29T08:37:09.340Z,99612.75
2022-08-29T08:40:19.868Z,99613.60
2022-08-29T08:43:26.743Z,99613.70
2022-08-29T08:46:38.919Z,99621.08
2022-08-29T08:49:45.803Z,99626.06
2022-08-29T08:53:07.510Z,99628.48
2022-08-29T08:56:26.513Z,99630.52
2022-08-29T08:59:39.584Z,99630.92
2022-08-29T09:02:49.489Z,99632.47
2022-08-29T09:06:29.782Z,99630.42
2022-08-29T09:09:59.545Z,99629.26
2022-08-29T09:13:21.638Z,99629.99
2022-08-29T09:16:47.042Z,99634.41
2022-08-29T09:19:51.131Z,99632.34
2022-08-29T09:23:03.487Z,99623.25
2022-08-29T09:26:05.480Z,99624.99
2022-08-29T09:29:12.046Z,99624.92
2022-08-29T09:32:18.824Z,99630.96
2022-08-29T09:35:42.486Z,99630.27
2022-08-29T09:38:44.193Z,99634.54
2022-08-29T09:41:57.770Z,99636.38
2022-08-29T09:45:26.675Z,99640.54
2022-08-29T09:48:31.063Z,99638.47
2022-08-29T09:51:39.022Z,99637.59
2022-08-29T09:54:41.751Z,99637.41
2022-08-29T09:57:53.040Z,99638.09
2022-08-29T10:01:05.505Z,99634.95
2022-08-29T10:04:09.211Z,99632.28
2022-08-29T10:07:24.423Z,99626.61
2022-08-29T10:10:30.701Z,99618.29
2022-08-29T10:13:53.282Z,99615.23
2022-08-29T10:17:22.859Z,99619.67
2022-08-29T10:20:51.166Z,99619.80
2022-08-29T10:24:01.777Z,99623.03
2022-08-29T10:27:32.725Z,99619.41
2022-08-29T10:31:14.435Z,99609.66
2022-08-29T10:34:31.613Z,99613.52
2022-08-29T10:38:14.976Z,99611.52
2022-08-29T10:41:39.881Z,99613.83
2022-08-29T10:45:07.915Z,99605.84
2022-08-29T10:48:11.859Z,99610.01
2022-08-29T10:51:26.366Z,99604.40
2022-08-29T10:54:43.738Z,99609.29
2022-08-29T10:58:12.390Z,99607.86
2022-08-29T11:01:25.985Z,99609.48
2022-08-29T11:04:39.387Z,99603.53
2022-08-29T11:07:51.043Z,99601.98
2022-08-29T11:10:53.562Z,99604.98
2022-08-29T11:14:05.568Z,99605.81
2022-08-29T11:17:10.580Z,99605.09
2022-08-29T11:20:40.701Z,99605.48
2022-08-29T11:23:47.717Z,99615.96
2022-08-29T11:27:21.593Z,99618.98
2022-08-29T11:30:46.091Z,99617.02
2022-08-29T11:34:08.249Z,99604.53
2022-08-29T11:37:25.918Z,99596.55
2022-08-29T11:44:37.871Z,99601.38
2022-08-29T11:47:45.551Z,99603.99
2022-08-29T11:50:49.384Z,99600.05
2022-08-29T11:53:51.333Z,99596.01
2022-08-29T11:57:02.351Z,99594.88
2022-08-29T12:03:35.240Z,99593.13
2022-08-29T12:06:57.339Z,99593.17
2022-08-29T12:10:06.626Z,99598.13
2022-08-29T12:13:08.475Z,99596.42
2022-08-29T12:16:12.392Z,99595.71
2022-08-29T12:19:47.433Z,99599.06
2022-08-29T12:22:52.284Z,99602.25
2022-08-29T12:26:21.081Z,99606.20
2022-08-29T12:29:25.744Z,99599.92
2022-08-29T12:32:46.694Z,99602.05
2022-08-29T12:36:19.363Z,99610.80
2022-08-29T12:39:45.858Z,99605.94
2022-08-29T12:43:12.251Z,99595.61
2022-08-29T12:46:30.874Z,99593.09
2022-08-29T12:49:51.679Z,99587.20
2022-08-29T12:53:23.884Z,99588.41
2022-08-29T12:56:28.865Z,99587.63
2022-08-29T12:59:30.754Z,99589.42
2022-08-29T13:02:35.620Z,99590.09
2022-08-29T13:05:39.486Z,99592.41
2022-08-29T13:08:41.290Z,99590.73
2022-08-29T13:11:43.031Z,99595.52
2022-08-29T13:15:00.366Z,99595.50
2022-08-29T13:18:03.250Z,99592.69
2022-08-29T13:21:27.213Z,99588.80
2022-08-29T13:24:29.090Z,99591.04
2022-08-29T13:27:30.796Z,99591.67
2022-08-29T13:30:32.443Z,99590.10
2022-08-29T13:33:35.989Z,99590.34
2022-08-29T13:36:52.025Z,99588.58
2022-08-29T13:39:54.339Z,99584.09
2022-08-29T13:42:57.017Z,99580.98
2022-08-29T13:46:18.445Z,99583.53
2022-08-29T13:49:26.225Z,99578.80
2022-08-29T13:52:31.410Z,99577.41
2022-08-29T13:55:34.640Z,99573.09
2022-08-29T13:58:36.522Z,99575.73
2022-08-29T14:05:00.397Z,99575.83
2022-08-29T14:08:02.769Z,99576.21
2022-08-29T14:11:04.561Z,99578.00
2022-08-29T14:14:13.134Z,99573.70
2022-08-29T14:17:18.536Z,99575.90
2022-08-29T14:20:21.081Z,99581.26
2022-08-29T14:23:23.370Z,99581.35
2022-08-29T14:26:26.421Z,99581.27
2022-08-29T14:29:30.063Z,99582.20
2022-08-29T14:32:32.675Z,99581.75
2022-08-29T14:35:34.925Z,99578.21
2022-08-29T14:38:36.792Z,99578.95
2022-08-29T14:41:38.778Z,99576.55
2022-08-29T14:44:40.659Z,99581.39
2022-08-29T14:47:43.607Z,99576.80
2022-08-29T14:50:45.460Z,99570.91
2022-08-29T14:53:54.250Z,99570.86
2022-08-29T14:56:56.652Z,99568.25
2022-08-29T14:59:58.405Z,99565.11
2022-08-29T15:03:00.513Z,99562.66
2022-08-29T15:06:05.673Z,99558.92
2022-08-29T15:09:07.476Z,99561.05
2022-08-29T15:12:13.444Z,99557.73
2022-08-29T15:15:15.232Z,99559.19
2022-08-29T15:18:42.816Z,99558.16
2022-08-29T15:21:40.776Z,99559.42
2022-08-29T15:24:42.706Z,99555.88
2022-08-29T15:27:44.655Z,99554.73
2022-08-29T15:30:47.576Z,99552.37
2022-08-29T15:33:49.598Z,99550.71
2022-08-29T15:36:52.231Z,99549.27
2022-08-29T15:39:55.119Z,99556.02
2022-08-29T15:42:57.037Z,99556.02
2022-08-29T15:45:59.443Z,99555.73
2022-08-29T15:49:01.878Z,99556.23
2022-08-29T15:52:03.664Z,99553.33
2022-08-29T15:55:06.435Z,99549.58
2022-08-29T15:58:08.101Z,99547.39
2022-08-29T16:01:10.471Z,99543.49
2022-08-29T16:04:14.468Z,99542.23
2022-08-29T16:07:17.116Z,99546.25
2022-08-29T16:10:18.885Z,99547.99
2022-08-29T16:13:21.309Z,99551.10
2022-08-29T16:16:23.110Z,99546.84
2022-08-29T16:19:24.960Z,99544.92
2022-08-29T16:22:27.814Z,99546.21
2022-08-29T16:25:31.136Z,99547.31
2022-08-29T16:28:33.418Z,99544.63
2022-08-29T16:31:36.095Z,99546.16
2022-08-29T16:34:38.422Z,99543.34
2022-08-29T16:37:40.401Z,99545.20
2022-08-29T16:40:42.197Z,99542.77
2022-08-29T16:43:45.557Z,99544.64
2022-08-29T16:46:47.297Z,99547.13
2022-08-29T16:49:49.003Z,99546.20
2022-08-29T16:52:50.763Z,99551.91
2022-08-29T16:55:52.666Z,99552.14
2022-08-29T16:59:04.519Z,99551.23
2022-08-29T17:02:06.777Z,99555.19
2022-08-29T17:05:08.598Z,99556.45
2022-08-29T17:08:10.323Z,99560.16
2022-08-29T17:11:11.962Z,99562.43
2022-08-29T17:14:14.538Z,99562.77
2022-08-29T17:17:16.389Z,99564.55
2022-08-29T17:20:20.346Z,99570.51
2022-08-29T17:23:22.194Z,99574.42
2022-08-29T17:26:24.179Z,99575.33
2022-08-29T17:29:25.988Z,99580.25
2022-08-29T17:32:28.511Z,99580.55
2022-08-29T17:35:31.289Z,99585.83
2022-08-29T17:38:33.580Z,99590.31
2022-08-29T17:41:37.632Z,99592.56
2022-08-29T17:44:39.507Z,99595.55
2022-08-29T17:47:41.375Z,99598.88
2022-08-29T17:50:43.774Z,99606.92
2022-08-29T17:53:45.724Z,99611.09
2022-08-29T17:56:54.028Z,99613.80
2022-08-29T17:59:56.019Z,99617.16
2022-08-29T18:02:58.490Z,99614.04
2022-08-29T18:06:00.261Z,99621.51
2022-08-29T18:09:02.244Z,99627.86
2022-08-29T18:12:04.257Z,99632.80
2022-08-29T18:15:07.379Z,99640.70
2022-08-29T18:18:09.757Z,99644.86
2022-08-29T18:21:16.455Z,99649.88
2022-08-29T18:24:20.089Z,99651.66
2022-08-29T18:27:22.459Z,99656.44
2022-08-29T18:30:24.381Z,99655.98
2022-08-29T18:33:38.864Z,99655.09
2022-08-29T18:36:49.144Z,99658.50
2022-08-29T18:39:50.976Z,99666.27
2022-08-29T18:42:52.838Z,99670.17
2022-08-29T18:45:55.402Z,99670.17
2022-08-29T18:48:57.477Z,99669.60
2022-08-29T18:51:59.154Z,99669.45
2022-08-29T18:55:00.915Z,99674.93
2022-08-29T18:58:02.792Z,99680.85
2022-08-29T19:01:27.107Z,99686.19
2022-08-29T19:04:30.009Z,99692.48
2022-08-29T19:07:31.889Z,99694.20
2022-08-29T19:10:34.282Z,99699.37
2022-08-29T19:13:36.118Z,99705.80
2022-08-29T19:16:39.648Z,99709.41
2022-08-29T19:20:00.166Z,99713.02
2022-08-29T19:23:03.656Z,99713.51
2022-08-29T19:26:09.022Z,99726.20
2022-08-29T19:29:13.514Z,99731.52
2022-08-29T19:32:15.337Z,99736.33
2022-08-29T19:35:17.221Z,99740.52
2022-08-29T19:38:20.585Z,99742.73
2022-08-29T19:41:22.478Z,99745.44
2022-08-29T19:44:24.599Z,99753.11
2022-08-29T19:47:26.364Z,99755.81
2022-08-29T19:50:28.154Z,99752.55
2022-08-29T19:53:29.926Z,99757.35
2022-08-29T19:56:33.620Z,99760.04
2022-08-29T19:59:35.561Z,99756.25
2022-08-29T20:02:37.558Z,99754.55
2022-08-29T20:05:39.678Z,99745.63
2022-08-29T20:08:43.677Z,99744.60
2022-08-29T20:11:45.711Z,99744.56
2022-08-29T20:14:50.209Z,99750.05
2022-08-29T20:17:51.953Z,99755.43
2022-08-29T20:20:55.545Z,99758.69
2022-08-29T20:23:58.398Z,99765.55
2022-08-29T20:27:01.589Z,99773.15
2022-08-29T20:30:06.293Z,99769.84
2022-08-29T20:33:08.213Z,99768.41
2022-08-29T20:36:34.522Z,99770.43
2022-08-29T20:39:46.418Z,99771.73
2022-08-29T20:42:48.215Z,99767.46
2022-08-29T20:45:49.983Z,99769.59
2022-08-29T20:48:51.675Z,99760.20
2022-08-29T20:51:53.409Z,99755.55
2022-08-29T20:54:55.208Z,99756.76
2022-08-29T20:57:57.018Z,99760.84
2022-08-29T21:01:00.763Z,99759.46
2022-08-29T21:04:23.074Z,99762.09
2022-08-29T21:07:25.917Z,99763.23
2022-08-29T21:10:27.710Z,99760.15
2022-08-29T21:13:29.540Z,99760.19
2022-08-29T21:16:31.503Z,99762.47
2022-08-29T21:19:34.597Z,99761.13
2022-08-29T21:22:36.321Z,99763.07
2022-08-29T21:25:40.293Z,99762.96
2022-08-29T21:28:44.355Z,99759.98
2022-08-29T21:31:50.585Z,99762.50
2022-08-29T21:34:52.441Z,99766.05
2022-08-29T21:37:54.306Z,99765.21
2022-08-29T21:40:58.750Z,99765.27
2022-08-29T21:44:00.508Z,99767.41
2022-08-29T21:47:03.035Z,99768.00
2022-08-29T21:50:06.011Z,99771.40
2022-08-29T21:53:08.007Z,99775.07
2022-08-29T21:56:09.702Z,99777.60
2022-08-29T21:59:12.401Z,99774.61
2022-08-29T22:02:15.223Z,99769.11
2022-08-29T22:05:17.083Z,99774.98
2022-08-29T22:08:21.027Z,99776.24
2022-08-29T22:11:29.458Z,99776.98
2022-08-29T22:14:58.134Z,99780.43
2022-08-29T22:18:00.170Z,99783.84
2022-08-29T22:21:02.574Z,99781.23
2022-08-29T22:24:06.778Z,99781.58
2022-08-29T22:27:08.542Z,99782.61
2022-08-29T22:30:12.091Z,99783.81
2022-08-29T22:33:16.418Z,99784.33
2022-08-29T22:36:19.300Z,99783.25
2022-08-29T22:39:21.060Z,99786.45
2022-08-29T22:42:22.959Z,99789.91
2022-08-29T22:45:25.948Z,99793.02
2022-08-29T22:48:27.706Z,99785.27
2022-08-29T22:51:29.748Z,99782.58
2022-08-29T22:54:37.635Z,99780.96
2022-08-29T22:57:40.825Z,99780.50
2022-08-29T23:00:42.702Z,99782.55
2022-08-29T23:03:45.339Z,99785.23
2022-08-29T23:06:56.585Z,99786.67
2022-08-29T23:09:58.392Z,99786.18
2022-08-29T23:13:00.085Z,99790.45
2022-08-29T23:16:01.858Z,99796.37
2022-08-29T23:19:04.280Z,99798.35
2022-08-29T23:22:07.518Z,99796.44
2022-08-29T23:25:10.021Z,99796.14
2022-08-29T23:28:11.816Z,99787.45
2022-08-29T23:31:15.419Z,99788.11
2022-08-29T23:34:17.551Z,99782.88
2022-08-29T23:37:19.426Z,99788.81
2022-08-29T23:40:21.226Z,99787.38
2022-08-29T23:43:24.778Z,99791.27
2022-08-29T23:46:26.743Z,99790.86
2022-08-29T23:49:29.019Z,99793.52
2022-08-29T23:52:30.829Z,99799.86
2022-08-29T23:55:32.608Z,99798.84
2022-08-29T23:58:34.390Z,99798.83
